Aeroporto :
LOGIN :

Iscrizione | Disclaimer

   EN    FR    IT 

 










Sommario :    VFR   VFR Marginale   IFR   IFR Intensivo   IFR Molto Intensivo
Visibilità : 
Base nubi : 
>= 8 km
>= 3000ft
5 / 8 km
1000 / 3000 ft
1500m / 5 km
500 / 1000 ft
800 / 1500m
200 / 500 ft
< 800m
< 200 ft
Simboli :   Temporali  Nebbia  Neve Forte  Precipitazioni Forti  Vento > 20 kt
SIGMETs :   Varie  Temporali  Ghiacco  Turbolenza  Onda orograficha  Ceneri Vulcaniche







- Altitudine del aeroporto : 538 ft
- Codice IATA : TNF
- Carte del aeroporto


LFPN - Toussus Le Noble

ULTIMO METAR :
  • 220530Z AUTO 31003KT 0400 0300 R25R/0325N FG VV/// 03/02 Q1029

METARs OBSOLETI :
  • 220500Z AUTO 32003KT 0250 R25R/0300N FG VV/// 03/02 Q1029
  • 220430Z AUTO 33002KT 0250 0150 R25R/M0200 FG VV/// 03/03 Q1029
  • 220400Z AUTO 33003KT 0250 R25R/0275N FG OVC003 05/04 Q1029
  • 220330Z AUTO 32003KT 0300 0250 R25R/0275N FG OVC004 05/04 Q1029
  • 220300Z AUTO 34003KT 0350 0250 R25R/0250N FG SCT005 BKN130 05/04 Q1029

Previsioni scadute.
ATIS : +33 1 39 56 54 70
Nessun NOTAM noto per questo aeroporto.



MetMap, La meteo Aeronautica in un colpo d'occhio ! - Copyright ORBIFLY Dicembre 2007 - Disclaimer

ORBIFLY MET'MAP TEAM :

Programmazione e sviluppo : Alexandra Zaïnal
Concezione e sviluppo : Baudouin d'Aumeries
Co-Programmazione e sviluppo : Marc-Olivier Méhu
Supporto tecnico e logistico : Manuel Goepfert
Aiuto per la traduzione : Arnaldo La Scala

Contatto : metmap@orbifly.com




FONTI E CREDITI :

   NOAA